Time;durP1;ratioP1;P1;durP2;ratioP2;P2;SDS_P1;SDS_P2;PMS_P1;PMS_P2;Temp;Humidity;BMP_temperature;BMP_pressure;BME280_temperature;BME280_humidity;BME280_pressure;Samples;Min_cycle;Max_cycle;Signal;HPM_P1;HPM_P2
2022/01/11 03:45:57;;;;;;;79.95;33.20;;;1.50;93.50;;;;;;5530142;24;20312;-82
2022/01/11 03:48:24;;;;;;;86.68;34.35;;;1.50;93.50;;;;;;4819979;29;20066;-81
2022/01/11 03:50:55;;;;;;;75.95;30.45;;;1.40;93.50;;;;;;4786803;29;20125;-81
2022/01/11 03:53:51;;;;;;;75.00;32.67;;;1.40;93.50;;;;;;4811543;29;20053;-81
2022/01/11 03:56:21;;;;;;;77.13;33.28;;;1.40;93.70;;;;;;4816401;29;20093;-82
2022/01/11 03:58:51;;;;;;;81.80;32.38;;;1.40;93.50;;;;;;4799263;29;20031;-81
2022/01/11 04:01:18;;;;;;;77.03;29.83;;;1.40;93.80;;;;;;4788815;30;20050;-81
2022/01/11 04:03:45;;;;;;;80.07;32.97;;;1.40;93.50;;;;;;4798849;29;20058;-81
2022/01/11 04:06:10;;;;;;;74.80;32.50;;;1.40;93.60;;;;;;4811662;29;20073;-81
2022/01/11 04:08:36;;;;;;;74.35;31.50;;;1.50;93.60;;;;;;4801639;29;20031;-81
2022/01/11 04:11:04;;;;;;;79.38;34.10;;;1.50;93.60;;;;;;4800233;29;20110;-82
2022/01/11 04:13:30;;;;;;;71.32;31.33;;;1.60;93.50;;;;;;4816386;29;20045;-81
2022/01/11 04:15:56;;;;;;;70.38;30.48;;;1.60;93.20;;;;;;4801238;29;20035;-82
2022/01/11 04:18:21;;;;;;;72.10;31.63;;;1.60;93.00;;;;;;4786191;29;20035;-82
2022/01/11 04:20:47;;;;;;;78.60;31.73;;;1.60;92.60;;;;;;4798228;29;20039;-82
2022/01/11 04:23:13;;;;;;;69.57;28.90;;;1.60;92.60;;;;;;4781496;29;20042;-82
2022/01/11 04:25:40;;;;;;;76.28;30.70;;;1.60;92.40;;;;;;4801159;29;20294;-82
2022/01/11 04:28:06;;;;;;;78.38;29.67;;;1.50;92.40;;;;;;4801604;29;20043;-82
2022/01/11 04:30:33;;;;;;;70.63;31.77;;;1.50;92.40;;;;;;4816434;29;20576;-82
2022/01/11 04:32:59;;;;;;;75.40;29.52;;;1.50;92.60;;;;;;4801222;29;20050;-82
2022/01/11 04:35:25;;;;;;;79.15;31.17;;;1.50;92.50;;;;;;4801164;29;20035;-81
2022/01/11 04:37:51;;;;;;;76.07;31.48;;;1.50;92.50;;;;;;4786402;29;20023;-82
2022/01/11 04:40:17;;;;;;;65.18;30.30;;;1.50;92.70;;;;;;4801295;29;20055;-82
2022/01/11 04:42:45;;;;;;;79.53;30.77;;;1.50;92.60;;;;;;4816479;29;20084;-82
2022/01/11 04:45:14;;;;;;;78.10;31.13;;;1.50;92.60;;;;;;4815700;29;20114;-82
2022/01/11 04:47:41;;;;;;;76.65;32.58;;;1.60;92.50;;;;;;4792172;30;20050;-82
2022/01/11 04:50:09;;;;;;;76.93;33.15;;;1.60;92.50;;;;;;4783166;30;20040;-82
2022/01/11 04:52:35;;;;;;;79.13;32.38;;;1.60;92.60;;;;;;4797795;29;20035;-82
2022/01/11 04:55:03;;;;;;;78.80;32.70;;;1.60;92.70;;;;;;4768390;30;20119;-82
2022/01/11 04:57:29;;;;;;;;;;;1.60;92.70;;;;;;4798097;29;20089;-82
2022/01/11 04:59:55;;;;;;;81.93;31.27;;;1.60;92.90;;;;;;4783068;30;19913;-82
2022/01/11 05:02:21;;;;;;;78.80;32.90;;;1.70;93.00;;;;;;4765082;30;20031;-82
2022/01/11 05:04:47;;;;;;;78.68;32.60;;;1.80;93.10;;;;;;4762410;30;20062;-82
2022/01/11 05:07:13;;;;;;;66.20;30.33;;;1.70;92.60;;;;;;4767929;30;20031;-82
2022/01/11 05:09:39;;;;;;;72.25;32.90;;;1.70;92.40;;;;;;4797517;29;20055;-82
2022/01/11 05:12:06;;;;;;;70.10;30.50;;;1.70;92.30;;;;;;4779861;30;20035;-83
2022/01/11 05:14:32;;;;;;;71.72;30.20;;;1.70;92.10;;;;;;4765028;30;20078;-82
2022/01/11 05:16:58;;;;;;;69.82;29.00;;;1.60;91.90;;;;;;4760987;30;20346;-82
2022/01/11 05:19:25;;;;;;;65.00;29.88;;;1.60;92.00;;;;;;4782406;30;20103;-83
2022/01/11 05:21:50;;;;;;;69.95;28.73;;;1.60;91.70;;;;;;4782420;30;20050;-83
2022/01/11 05:24:16;;;;;;;72.50;26.88;;;1.60;91.70;;;;;;4779569;30;20036;-82
2022/01/11 05:26:46;;;;;;;68.78;29.52;;;1.60;91.60;;;;;;4782904;29;20068;-82
2022/01/11 05:29:12;;;;;;;66.20;29.13;;;1.50;91.60;;;;;;4782577;30;20027;-81
2022/01/11 05:31:39;;;;;;;63.20;29.33;;;1.50;91.90;;;;;;4767666;30;20036;-81
2022/01/11 05:34:05;;;;;;;64.57;28.48;;;1.50;91.90;;;;;;4767538;30;20027;-81
2022/01/11 05:36:31;;;;;;;71.57;29.27;;;1.50;91.90;;;;;;4781706;30;20046;-82
2022/01/11 05:38:57;;;;;;;72.50;28.48;;;1.50;92.00;;;;;;4767241;30;20337;-81
2022/01/11 05:41:22;;;;;;;67.13;29.23;;;1.50;91.80;;;;;;4764679;30;20102;-81
2022/01/11 05:43:48;;;;;;;80.13;29.70;;;1.50;91.60;;;;;;4781974;30;20413;-82
2022/01/11 05:46:14;;;;;;;65.60;30.02;;;1.40;91.70;;;;;;4796601;29;20051;-81
2022/01/11 05:48:44;;;;;;;61.55;28.33;;;1.50;91.80;;;;;;4767125;30;20042;-82
2022/01/11 05:51:12;;;;;;;60.92;28.25;;;1.50;91.60;;;;;;4782653;30;20625;-82
2022/01/11 05:53:39;;;;;;;68.03;27.10;;;1.50;91.00;;;;;;4779004;30;20039;-82
2022/01/11 05:56:08;;;;;;;65.10;27.88;;;1.40;90.80;;;;;;4796594;29;20031;-81
2022/01/11 05:58:34;;;;;;;61.42;27.40;;;1.40;90.60;;;;;;4767087;30;20023;-81
2022/01/11 06:01:03;;;;;;;65.43;27.83;;;1.40;90.70;;;;;;4764526;30;20052;-81
2022/01/11 06:03:32;;;;;;;60.92;27.85;;;1.50;90.80;;;;;;4796653;30;20038;-81
2022/01/11 06:05:58;;;;;;;64.00;28.23;;;1.50;90.80;;;;;;4798589;29;20034;-81
2022/01/11 06:08:24;;;;;;;70.75;28.90;;;1.50;91.10;;;;;;4783979;29;20050;-82
2022/01/11 06:10:50;;;;;;;68.20;30.40;;;1.50;91.10;;;;;;4796112;29;20091;-81
2022/01/11 06:13:19;;;;;;;76.47;29.85;;;1.60;91.30;;;;;;4798484;29;20030;-82
2022/01/11 06:15:47;;;;;;;68.45;29.27;;;1.50;91.10;;;;;;4769539;29;20370;-81
2022/01/11 06:18:14;;;;;;;66.80;30.38;;;1.60;91.20;;;;;;4791927;29;20077;-83
2022/01/11 06:21:12;;;;;;;67.25;29.48;;;1.60;91.10;;;;;;4741349;30;20037;-81
2022/01/11 06:23:38;;;;;;;71.60;30.47;;;1.60;91.10;;;;;;4713676;30;20037;-82
2022/01/11 06:26:05;;;;;;;73.45;29.88;;;1.60;91.10;;;;;;4713168;30;20036;-81
2022/01/11 06:28:31;;;;;;;68.05;30.40;;;1.70;91.30;;;;;;4727387;30;20055;-81
2022/01/11 06:30:57;;;;;;;73.70;31.03;;;1.70;91.10;;;;;;4735091;30;20049;-82
2022/01/11 06:33:23;;;;;;;71.57;32.73;;;1.70;91.10;;;;;;4741574;30;20123;-82
2022/01/11 06:35:49;;;;;;;68.00;30.85;;;1.70;91.40;;;;;;4742732;30;20071;-81
2022/01/11 06:38:18;;;;;;;76.63;32.85;;;1.70;91.20;;;;;;4727918;30;20032;-82
2022/01/11 06:40:45;;;;;;;66.40;31.13;;;1.70;91.30;;;;;;4726977;30;20025;-82
2022/01/11 06:43:11;;;;;;;73.13;31.23;;;1.70;91.30;;;;;;4728412;30;20048;-82
2022/01/11 06:45:38;;;;;;;72.40;30.17;;;1.70;91.10;;;;;;4710873;30;20036;-82
2022/01/11 06:48:08;;;;;;;63.38;28.55;;;1.60;90.90;;;;;;4728207;30;20267;-82
2022/01/11 06:50:34;;;;;;;69.43;30.83;;;1.60;91.10;;;;;;4727949;30;20232;-82
2022/01/11 06:53:00;;;;;;;70.85;30.17;;;1.70;90.90;;;;;;4725115;30;20124;-82
2022/01/11 06:55:28;;;;;;;69.05;30.30;;;1.60;91.00;;;;;;4742014;30;20043;-82
2022/01/11 06:57:54;;;;;;;61.80;27.42;;;1.60;90.70;;;;;;4780121;30;20046;-82
2022/01/11 07:00:21;;;;;;;64.60;28.60;;;1.60;90.40;;;;;;4782627;29;20135;-82
2022/01/11 07:02:52;;;;;;;69.93;31.95;;;1.60;90.60;;;;;;4823067;29;20289;-82
2022/01/11 07:05:44;;;;;;;72.82;30.85;;;1.70;90.70;;;;;;4784731;29;20055;-82
2022/01/11 07:08:11;;;;;;;71.82;31.20;;;1.60;90.50;;;;;;4805800;29;20030;-82
2022/01/11 07:10:37;;;;;;;66.07;30.05;;;1.70;90.50;;;;;;4793938;30;20110;-82
2022/01/11 07:13:04;;;;;;;69.32;30.02;;;1.60;90.30;;;;;;4794213;30;20039;-82
2022/01/11 07:15:31;;;;;;;78.68;31.42;;;1.60;90.10;;;;;;4808685;30;20054;-82
2022/01/11 07:17:58;;;;;;;84.47;36.47;;;1.60;90.30;;;;;;4808555;30;20065;-82
2022/01/11 07:20:24;;;;;;;76.47;32.10;;;1.60;90.30;;;;;;4776083;30;20303;-83
2022/01/11 07:22:50;;;;;;;73.32;29.23;;;1.60;90.30;;;;;;4783741;30;20035;-82
2022/01/11 07:25:16;;;;;;;77.43;34.45;;;1.60;90.20;;;;;;4768575;30;20150;-82
2022/01/11 07:27:44;;;;;;;67.25;31.17;;;1.60;90.20;;;;;;4768385;30;20051;-82
2022/01/11 07:30:11;;;;;;;61.15;27.27;;;1.60;90.10;;;;;;4768769;30;20096;-82
2022/01/11 07:32:44;;;;;;;64.40;29.17;;;1.60;90.40;;;;;;4798092;29;20031;-82
2022/01/11 07:35:10;;;;;;;73.07;28.85;;;1.70;90.30;;;;;;4797929;30;20100;-82
2022/01/11 07:37:37;;;;;;;63.40;28.00;;;1.60;90.00;;;;;;4782952;30;20030;-82
2022/01/11 07:40:06;;;;;;;63.65;28.65;;;1.70;90.20;;;;;;4756811;30;20043;-82
2022/01/11 07:42:32;;;;;;;65.65;27.48;;;1.70;90.20;;;;;;4768853;30;20034;-81
2022/01/11 07:45:11;;;;;;;71.25;30.13;;;1.70;90.10;;;;;;4796520;30;20353;-81
2022/01/11 07:47:38;;;;;;;72.50;29.27;;;1.80;90.40;;;;;;4794246;30;20051;-84
2022/01/11 07:50:06;;;;;;;75.07;30.43;;;1.80;90.00;;;;;;4784258;30;20050;-83
2022/01/11 07:52:33;;;;;;;68.70;28.60;;;1.70;90.10;;;;;;4784043;30;20347;-83
2022/01/11 07:55:01;;;;;;;67.80;31.20;;;1.80;90.30;;;;;;4780635;30;20039;-83
2022/01/11 07:57:30;;;;;;;67.30;29.52;;;1.70;89.70;;;;;;4766178;30;20036;-83
2022/01/11 07:59:56;;;;;;;64.93;30.27;;;1.70;89.90;;;;;;4783201;29;20034;-83
2022/01/11 08:02:41;;;;;;;72.65;30.88;;;1.70;90.00;;;;;;4782389;30;20040;-81
2022/01/11 08:05:10;;;;;;;65.10;29.58;;;1.70;90.10;;;;;;4782875;30;20042;-82
2022/01/11 08:07:39;;;;;;;70.30;31.48;;;1.60;90.20;;;;;;4798117;30;20039;-82
2022/01/11 08:10:17;;;;;;;79.03;30.15;;;1.60;90.40;;;;;;4784344;30;20035;-82
2022/01/11 08:12:43;;;;;;;62.53;28.75;;;1.70;90.20;;;;;;4768903;30;20039;-82
2022/01/11 08:15:09;;;;;;;57.33;27.60;;;1.60;90.10;;;;;;4782941;30;20047;-82
2022/01/11 08:17:35;;;;;;;61.72;28.65;;;1.70;89.80;;;;;;4797835;30;20039;-82
2022/01/11 08:20:01;;;;;;;67.80;30.52;;;1.70;90.00;;;;;;4767466;30;20102;-82
2022/01/11 08:22:27;;;;;;;64.85;29.73;;;1.60;90.20;;;;;;4782662;30;20076;-82
2022/01/11 08:24:54;;;;;;;63.50;28.33;;;1.60;89.80;;;;;;4765073;30;20042;-82
2022/01/11 08:27:22;;;;;;;70.03;31.52;;;1.60;89.90;;;;;;4760597;30;20139;-82
2022/01/11 08:29:50;;;;;;;69.72;30.73;;;1.60;90.10;;;;;;4795044;29;20063;-82
2022/01/11 08:32:16;;;;;;;62.83;29.55;;;1.60;89.80;;;;;;4781460;30;20236;-81
2022/01/11 08:34:42;;;;;;;57.47;27.98;;;1.70;89.80;;;;;;4782365;30;20088;-82
2022/01/11 08:37:09;;;;;;;;;;;1.70;89.20;;;;;;4783130;30;20319;-82
2022/01/11 08:39:36;;;;;;;65.10;29.02;;;1.60;89.00;;;;;;4781324;30;19949;-83
2022/01/11 08:42:03;;;;;;;60.25;27.40;;;1.60;89.70;;;;;;4782494;30;20096;-83
2022/01/11 08:44:30;;;;;;;71.68;28.50;;;1.70;88.30;;;;;;4781373;30;20050;-83
2022/01/11 08:46:57;;;;;;;65.43;30.05;;;1.70;88.30;;;;;;4765992;30;20059;-83
2022/01/11 08:49:30;;;;;;;56.20;25.42;;;1.70;88.50;;;;;;4783160;30;20107;-83
2022/01/11 08:51:56;;;;;;;53.63;23.63;;;1.70;86.20;;;;;;4782206;30;20036;-82
2022/01/11 08:54:24;;;;;;;59.22;26.55;;;1.70;86.10;;;;;;4782155;30;20105;-82
2022/01/11 08:56:55;;;;;;;54.67;25.05;;;1.70;86.60;;;;;;4782864;30;20035;-82
2022/01/11 08:59:25;;;;;;;52.17;24.50;;;1.70;84.60;;;;;;4767550;30;20042;-82
2022/01/11 09:01:57;;;;;;;51.97;23.15;;;1.70;84.90;;;;;;4781892;29;20102;-81
2022/01/11 09:04:24;;;;;;;51.10;24.42;;;1.70;84.20;;;;;;4781771;30;20042;-81
2022/01/11 09:07:12;;;;;;;53.58;24.13;;;1.70;83.90;;;;;;4797443;29;20064;-82
2022/01/11 09:09:39;;;;;;;59.10;26.17;;;1.60;83.50;;;;;;4751969;30;20095;-83
2022/01/11 09:12:08;;;;;;;48.72;23.70;;;1.70;84.00;;;;;;4797037;29;20038;-83
2022/01/11 09:14:38;;;;;;;57.70;26.35;;;1.70;83.60;;;;;;4782563;30;20281;-81
2022/01/11 09:17:04;;;;;;;54.40;24.67;;;1.70;83.80;;;;;;4781157;30;20047;-81
2022/01/11 09:19:32;;;;;;;58.25;25.58;;;1.60;83.40;;;;;;4795156;30;20094;-83
2022/01/11 09:21:58;;;;;;;51.35;26.17;;;1.70;83.60;;;;;;4794821;30;20231;-83
2022/01/11 09:24:29;;;;;;;57.45;26.17;;;1.80;83.90;;;;;;4780349;30;20035;-83
2022/01/11 09:26:58;;;;;;;57.25;25.35;;;1.80;83.80;;;;;;4776780;30;20398;-83
2022/01/11 09:29:27;;;;;;;46.40;22.35;;;1.90;83.80;;;;;;4780306;30;20231;-81
2022/01/11 09:31:56;;;;;;;48.28;23.02;;;1.80;82.30;;;;;;4777088;30;20310;-82
2022/01/11 09:34:24;;;;;;;57.38;24.75;;;1.80;82.70;;;;;;4793439;30;20507;-81
2022/01/11 09:36:50;;;;;;;49.43;21.50;;;1.80;81.70;;;;;;4763500;30;20042;-82
2022/01/11 09:39:16;;;;;;;43.00;21.63;;;1.80;81.60;;;;;;4793116;30;20296;-82
2022/01/11 09:41:43;;;;;;;44.63;21.15;;;1.80;82.00;;;;;;4781421;29;20066;-82
2022/01/11 09:44:12;;;;;;;46.80;21.52;;;1.90;79.70;;;;;;4781183;30;20047;-82
2022/01/11 09:46:38;;;;;;;48.95;20.85;;;1.80;79.00;;;;;;4795142;29;20075;-82
2022/01/11 09:49:05;;;;;;;47.08;22.98;;;1.80;79.40;;;;;;4762291;30;20050;-81
2022/01/11 09:51:34;;;;;;;42.03;19.48;;;1.90;80.10;;;;;;4777805;29;20100;-81
2022/01/11 09:54:00;;;;;;;41.35;21.05;;;1.90;78.30;;;;;;4791706;30;20758;-81
2022/01/11 09:56:27;;;;;;;52.17;22.30;;;2.00;77.90;;;;;;4790310;30;20472;-81
2022/01/11 09:58:55;;;;;;;47.78;23.00;;;2.00;78.70;;;;;;4763525;30;20031;-83
2022/01/11 10:01:40;;;;;;;51.70;23.92;;;2.10;79.40;;;;;;4794277;30;20058;-83
2022/01/11 10:04:18;;;;;;;48.67;22.80;;;2.10;79.40;;;;;;4801762;29;20327;-83
2022/01/11 10:07:06;;;;;;;41.70;20.85;;;2.10;78.80;;;;;;4792486;30;20084;-83
2022/01/11 10:09:49;;;;;;;46.42;22.90;;;2.20;78.40;;;;;;4780822;30;20110;-83
2022/01/11 10:12:18;;;;;;;44.35;21.42;;;2.20;77.90;;;;;;4781273;29;20044;-82
2022/01/11 10:14:58;;;;;;;45.08;21.00;;;2.20;76.40;;;;;;4792668;29;20035;-82
2022/01/11 10:17:29;;;;;;;43.80;21.95;;;2.20;76.50;;;;;;4765758;30;20083;-82
2022/01/11 10:20:21;;;;;;;50.30;22.13;;;2.40;78.20;;;;;;4781499;30;20095;-82
2022/01/11 10:23:01;;;;;;;38.78;19.95;;;2.40;77.00;;;;;;4780779;30;20024;-82
2022/01/11 10:25:29;;;;;;;44.50;20.85;;;2.50;76.20;;;;;;4794522;29;20034;-82
2022/01/11 10:28:04;;;;;;;43.97;21.40;;;2.50;74.30;;;;;;4795142;30;20239;-82
2022/01/11 10:30:34;;;;;;;50.25;24.33;;;2.50;73.60;;;;;;4769453;30;20031;-82
2022/01/11 10:33:08;;;;;;;44.63;21.08;;;2.40;73.80;;;;;;4780485;30;20070;-82
2022/01/11 10:35:42;;;;;;;48.85;20.88;;;2.40;74.40;;;;;;4780975;30;20274;-82
2022/01/11 10:38:23;;;;;;;49.70;21.00;;;2.50;74.60;;;;;;4798847;29;20040;-82
2022/01/11 10:40:49;;;;;;;51.72;24.65;;;2.50;75.40;;;;;;4783914;29;20031;-82
2022/01/11 10:43:20;;;;;;;46.35;21.08;;;2.50;76.00;;;;;;4782523;30;20031;-81
2022/01/11 10:45:58;;;;;;;46.63;22.48;;;2.40;76.60;;;;;;4798849;29;20062;-82
2022/01/11 10:48:27;;;;;;;55.25;24.98;;;2.30;77.70;;;;;;4798941;29;20027;-82
2022/01/11 10:51:01;;;;;;;60.05;25.98;;;2.40;79.30;;;;;;4770023;30;20062;-82
2022/01/11 10:53:38;;;;;;;55.92;26.95;;;2.50;80.30;;;;;;4797989;29;20056;-82
2022/01/11 10:56:05;;;;;;;56.92;24.98;;;2.50;80.50;;;;;;4796805;29;20035;-82
2022/01/11 10:58:36;;;;;;;59.85;25.92;;;2.60;80.10;;;;;;4785020;29;20029;-82
2022/01/11 11:01:10;;;;;;;64.15;26.33;;;2.70;80.50;;;;;;4784298;30;20426;-82
2022/01/11 11:03:36;;;;;;;56.28;25.35;;;2.70;81.20;;;;;;4783815;30;20027;-82
2022/01/11 11:06:11;;;;;;;53.67;24.27;;;2.90;80.20;;;;;;4770150;30;20047;-82
2022/01/11 11:08:44;;;;;;;58.78;26.02;;;2.90;79.50;;;;;;4784024;30;20028;-82
2022/01/11 11:11:23;;;;;;;57.60;25.63;;;2.90;78.80;;;;;;4780557;30;20231;-82
2022/01/11 11:14:52;;;;;;;57.40;24.55;;;2.90;79.00;;;;;;4776459;30;20040;-82
2022/01/11 11:17:35;;;;;;;57.08;25.75;;;2.90;78.80;;;;;;4786799;30;20041;-82
2022/01/11 11:20:10;;;;;;;58.13;26.00;;;2.80;78.70;;;;;;4785659;30;20055;-82
2022/01/11 11:22:36;;;;;;;56.92;24.50;;;2.80;78.90;;;;;;4759594;30;20349;-83
2022/01/11 11:25:04;;;;;;;55.63;24.77;;;2.70;78.30;;;;;;4750471;30;20048;-82
2022/01/11 11:27:31;;;;;;;57.22;26.58;;;2.60;78.70;;;;;;4761435;30;20039;-82
2022/01/11 11:29:59;;;;;;;51.83;23.83;;;2.60;78.70;;;;;;4766644;30;20070;-82
2022/01/11 11:32:25;;;;;;;57.92;25.23;;;2.50;78.90;;;;;;4775463;30;20039;-82
2022/01/11 11:34:51;;;;;;;54.53;23.55;;;2.40;79.50;;;;;;4782954;30;20035;-82
2022/01/11 11:37:25;;;;;;;58.97;24.42;;;2.40;78.50;;;;;;4765678;30;20059;-82
2022/01/11 11:39:56;;;;;;;57.10;24.52;;;2.30;79.00;;;;;;4779047;30;20235;-82
2022/01/11 11:42:24;;;;;;;55.10;25.58;;;2.50;79.20;;;;;;4761770;30;20040;-81
2022/01/11 11:44:50;;;;;;;52.22;22.50;;;2.60;79.50;;;;;;4785659;30;20070;-81
2022/01/11 11:47:30;;;;;;;61.50;25.95;;;2.60;78.50;;;;;;4748930;30;20074;-82
2022/01/11 11:49:58;;;;;;;58.60;23.42;;;2.70;79.20;;;;;;4776878;30;20231;-82
2022/01/11 11:52:39;;;;;;;54.67;23.73;;;2.80;79.40;;;;;;4779739;30;20106;-81
2022/01/11 11:55:11;;;;;;;62.78;27.83;;;2.80;79.90;;;;;;4810961;29;20038;-82
2022/01/11 11:57:42;;;;;;;56.95;25.42;;;2.80;80.20;;;;;;4797167;29;20051;-82
2022/01/11 12:00:25;;;;;;;59.28;25.55;;;2.90;80.40;;;;;;4767194;30;20185;-82
2022/01/11 12:02:58;;;;;;;60.15;25.33;;;3.00;80.30;;;;;;4796934;30;20243;-82
2022/01/11 12:05:32;;;;;;;63.13;26.75;;;3.00;79.70;;;;;;4791706;30;20038;-83
2022/01/11 12:08:19;;;;;;;55.22;26.58;;;3.00;79.40;;;;;;4781852;30;20042;-81
2022/01/11 12:10:53;;;;;;;57.28;25.90;;;2.90;79.60;;;;;;4782512;30;20035;-81
2022/01/11 12:13:39;;;;;;;59.85;27.45;;;3.00;79.50;;;;;;4777128;30;20074;-81
2022/01/11 12:16:26;;;;;;;;;;;3.10;79.60;;;;;;4783073;30;20058;-81
2022/01/11 12:19:30;;;;;;;56.45;25.85;;;3.10;79.80;;;;;;4760303;30;19917;-81
2022/01/11 12:22:05;;;;;;;56.17;25.98;;;3.20;79.50;;;;;;4727005;30;20062;-82
2022/01/11 12:24:44;;;;;;;61.00;25.60;;;3.20;79.30;;;;;;4760739;30;20063;-82
2022/01/11 12:27:11;;;;;;;61.70;27.10;;;3.30;78.60;;;;;;4746345;30;20063;-82
2022/01/11 12:29:50;;;;;;;62.00;27.10;;;3.20;78.80;;;;;;4757223;30;20149;-83
2022/01/11 12:32:18;;;;;;;63.53;29.50;;;3.20;79.90;;;;;;4759033;30;20332;-81
2022/01/11 12:34:50;;;;;;;66.45;29.95;;;3.20;79.00;;;;;;4745661;30;20186;-82
2022/01/11 12:37:36;;;;;;;62.95;28.40;;;3.10;79.10;;;;;;4759077;30;20036;-83
2022/01/11 12:40:09;;;;;;;62.20;28.48;;;3.00;79.40;;;;;;4758272;30;20048;-83
2022/01/11 12:42:36;;;;;;;52.45;25.38;;;2.90;78.90;;;;;;4757756;30;20044;-82
2022/01/11 12:47:47;;;;;;;59.55;27.98;;;2.90;80.50;;;;;;4760414;30;20059;-82
2022/01/11 12:50:17;;;;;;;57.00;26.50;;;3.00;79.60;;;;;;4759053;30;20346;-81
2022/01/11 12:52:44;;;;;;;58.92;25.95;;;3.10;79.10;;;;;;4729650;30;20235;-82
2022/01/11 12:55:11;;;;;;;;;;;3.10;78.80;;;;;;4761130;29;20042;-82
2022/01/11 12:57:38;;;;;;;53.45;25.55;;;3.10;79.00;;;;;;4797316;30;20171;-81
2022/01/11 13:00:19;;;;;;;53.05;25.92;;;3.10;79.30;;;;;;4779575;30;20040;-82
2022/01/11 13:02:44;;;;;;;58.60;26.88;;;3.10;79.00;;;;;;4812332;29;20035;-82
2022/01/11 13:05:15;;;;;;;54.08;25.73;;;3.10;79.00;;;;;;4797582;30;20100;-82
2022/01/11 13:07:48;;;;;;;59.25;27.10;;;3.00;79.10;;;;;;4777165;30;20282;-81
2022/01/11 13:10:21;;;;;;;53.72;26.80;;;2.90;79.70;;;;;;4798378;29;20035;-82
2022/01/11 13:13:08;;;;;;;60.22;27.45;;;2.80;80.10;;;;;;4779698;30;20069;-82
2022/01/11 13:15:40;;;;;;;58.25;25.58;;;2.80;79.60;;;;;;4787835;29;20046;-82
2022/01/11 13:18:07;;;;;;;51.47;25.08;;;2.80;79.60;;;;;;4782832;30;20062;-82
2022/01/11 13:20:34;;;;;;;59.08;25.35;;;2.80;79.30;;;;;;4797683;29;20038;-82
2022/01/11 13:26:02;;;;;;;56.47;25.48;;;2.80;80.10;;;;;;4785463;29;19944;-82
2022/01/11 13:28:46;;;;;;;61.22;25.48;;;2.90;80.80;;;;;;4800585;29;20053;-82
2022/01/11 13:31:18;;;;;;;58.72;26.98;;;3.00;81.00;;;;;;4791838;29;20047;-82
2022/01/11 13:33:51;;;;;;;55.67;24.58;;;3.00;80.80;;;;;;4790122;29;20067;-82
2022/01/11 13:36:17;;;;;;;58.10;25.70;;;3.00;81.00;;;;;;4785670;30;20054;-82
2022/01/11 13:38:49;;;;;;;58.63;25.95;;;3.00;80.50;;;;;;4785561;29;21096;-82
2022/01/11 13:41:16;;;;;;;61.75;25.60;;;3.00;80.30;;;;;;4801243;29;20066;-83
2022/01/11 13:43:45;;;;;;;51.83;23.45;;;3.00;80.00;;;;;;4795015;29;20035;-82
2022/01/11 13:46:21;;;;;;;56.20;24.35;;;3.00;79.70;;;;;;4785244;29;20051;-82
2022/01/11 13:48:49;;;;;;;52.85;24.10;;;3.00;78.10;;;;;;4800169;29;20039;-82
2022/01/11 13:51:16;;;;;;;49.30;22.40;;;3.00;78.70;;;;;;4791295;29;20043;-82
2022/01/11 13:53:42;;;;;;;42.67;21.73;;;3.00;76.90;;;;;;4813740;29;20120;-83
2022/01/11 13:56:13;;;;;;;46.35;22.42;;;2.90;76.50;;;;;;4787894;29;20122;-83
2022/01/11 13:58:47;;;;;;;47.55;23.83;;;2.90;76.90;;;;;;4785673;30;20047;-83
2022/01/11 14:01:15;;;;;;;44.88;22.77;;;2.90;77.40;;;;;;4765874;30;20131;-83
2022/01/11 14:03:41;;;;;;;47.58;21.77;;;2.90;77.20;;;;;;4775813;30;20051;-83
2022/01/11 14:06:16;;;;;;;43.57;21.87;;;2.90;77.70;;;;;;4778523;29;20019;-82
2022/01/11 14:08:45;;;;;;;45.75;22.02;;;2.90;77.40;;;;;;4795222;30;20055;-83
2022/01/11 14:11:14;;;;;;;42.75;21.30;;;2.80;77.10;;;;;;4779900;30;20231;-82
2022/01/11 14:13:41;;;;;;;43.58;19.98;;;2.80;76.70;;;;;;4779600;30;20042;-83
2022/01/11 14:16:13;;;;;;;40.42;20.40;;;2.80;76.40;;;;;;4765465;30;21059;-82
2022/01/11 14:18:40;;;;;;;39.17;19.35;;;2.80;76.40;;;;;;4799033;29;20204;-83
2022/01/11 14:21:11;;;;;;;42.85;21.75;;;2.80;76.70;;;;;;4785701;30;20324;-83
2022/01/11 14:23:37;;;;;;;42.95;20.08;;;2.80;76.60;;;;;;4800606;30;20041;-82
2022/01/11 14:26:05;;;;;;;44.30;21.45;;;2.80;76.80;;;;;;4786150;30;20022;-82
2022/01/11 14:28:34;;;;;;;40.42;20.27;;;2.80;77.00;;;;;;4786249;30;20040;-82
2022/01/11 14:31:10;;;;;;;41.05;21.05;;;2.80;77.20;;;;;;4801498;30;20231;-82
2022/01/11 14:33:37;;;;;;;44.42;20.77;;;2.70;76.70;;;;;;4785988;30;20042;-82
2022/01/11 14:36:11;;;;;;;48.10;19.55;;;2.80;77.40;;;;;;4786030;30;20031;-82
2022/01/11 14:38:56;;;;;;;45.92;21.13;;;2.80;77.10;;;;;;4786738;30;20042;-82
2022/01/11 14:41:24;;;;;;;41.22;18.58;;;2.80;77.30;;;;;;4801148;30;20106;-82
2022/01/11 14:44:15;;;;;;;48.40;20.02;;;2.80;77.30;;;;;;4801657;30;20223;-82
2022/01/11 14:46:59;;;;;;;40.10;18.95;;;2.70;77.50;;;;;;4784708;30;20062;-82
2022/01/11 14:49:28;;;;;;;39.67;17.35;;;2.70;77.70;;;;;;4798735;30;20038;-82
2022/01/11 14:52:21;;;;;;;39.05;18.65;;;2.60;76.90;;;;;;4800465;30;20039;-83
2022/01/11 14:54:57;;;;;;;36.58;17.52;;;2.70;77.70;;;;;;4816679;29;20248;-83
2022/01/11 14:57:24;;;;;;;40.85;20.38;;;2.70;77.50;;;;;;4784502;30;20062;-82
2022/01/11 14:59:50;;;;;;;44.45;19.75;;;2.60;77.90;;;;;;4784457;30;20280;-82
2022/01/11 15:02:25;;;;;;;40.88;18.88;;;2.50;77.70;;;;;;4786142;29;20023;-82
2022/01/11 15:04:51;;;;;;;42.65;18.80;;;2.50;77.60;;;;;;4801721;30;20235;-83
2022/01/11 15:07:20;;;;;;;40.23;17.57;;;2.50;78.20;;;;;;4771222;30;20046;-83
2022/01/11 15:09:48;;;;;;;41.05;18.10;;;2.50;78.30;;;;;;4781571;30;20039;-83
2022/01/11 15:12:24;;;;;;;35.05;16.92;;;2.50;78.40;;;;;;4785515;30;20087;-83
2022/01/11 15:14:54;;;;;;;33.57;16.37;;;2.40;78.30;;;;;;4800528;30;20047;-83
2022/01/11 15:17:21;;;;;;;33.30;16.42;;;2.40;78.60;;;;;;4784316;30;20092;-82
2022/01/11 15:19:47;;;;;;;37.88;17.90;;;2.40;78.60;;;;;;4801359;30;20031;-83
2022/01/11 15:22:13;;;;;;;39.97;17.63;;;2.30;79.00;;;;;;4771432;30;20043;-82
2022/01/11 15:24:39;;;;;;;36.60;19.13;;;2.30;79.20;;;;;;4770932;30;20031;-83
2022/01/11 15:27:05;;;;;;;36.15;18.52;;;2.20;79.90;;;;;;4756408;30;20280;-82
2022/01/11 15:29:31;;;;;;;37.67;17.63;;;2.20;80.00;;;;;;4799897;29;20094;-83
2022/01/11 15:31:59;;;;;;;40.40;18.80;;;2.30;80.30;;;;;;4797998;29;20277;-83
2022/01/11 15:34:26;;;;;;;44.97;18.65;;;2.20;80.60;;;;;;4797592;30;20035;-83
2022/01/11 15:36:52;;;;;;;46.47;19.77;;;2.20;80.90;;;;;;4798111;30;20055;-83
2022/01/11 15:39:20;;;;;;;47.17;22.17;;;2.10;81.50;;;;;;4782818;30;20039;-84
2022/01/11 15:41:46;;;;;;;42.20;21.58;;;2.10;82.60;;;;;;4783333;30;20051;-83
2022/01/11 15:44:13;;;;;;;50.88;23.20;;;2.00;83.40;;;;;;4782558;30;20054;-83
2022/01/11 15:46:41;;;;;;;49.08;23.55;;;2.00;84.80;;;;;;4798112;29;20065;-83
2022/01/11 15:49:08;;;;;;;54.38;23.52;;;2.00;84.80;;;;;;4767402;30;20283;-83
2022/01/11 15:51:33;;;;;;;;;;;2.00;85.10;;;;;;4783383;30;20031;-83
2022/01/11 15:54:02;;;;;;;54.60;23.40;;;2.00;85.60;;;;;;4768062;30;19914;-82
2022/01/11 15:56:30;;;;;;;56.17;25.45;;;1.90;85.70;;;;;;4797844;29;20182;-83
2022/01/11 15:58:56;;;;;;;59.03;25.35;;;2.00;85.60;;;;;;4782964;30;20073;-82
2022/01/11 16:01:24;;;;;;;53.83;23.98;;;1.90;86.10;;;;;;4782407;30;20035;-84
2022/01/11 16:03:51;;;;;;;56.35;26.58;;;1.90;86.20;;;;;;4783155;30;20043;-83
2022/01/11 16:06:17;;;;;;;56.15;26.38;;;1.90;86.50;;;;;;4782624;30;20035;-84
2022/01/11 16:08:43;;;;;;;52.97;24.52;;;1.90;86.50;;;;;;4779423;30;20040;-82
2022/01/11 16:11:09;;;;;;;55.33;24.75;;;1.90;86.60;;;;;;4781417;30;20051;-83
2022/01/11 16:13:36;;;;;;;52.13;22.83;;;1.80;86.60;;;;;;4782132;30;20028;-84
2022/01/11 16:16:02;;;;;;;50.05;23.23;;;1.80;86.70;;;;;;4796397;29;20058;-85
2022/01/11 16:18:29;;;;;;;57.10;25.70;;;1.80;87.00;;;;;;4778279;30;20360;-85
2022/01/11 16:20:55;;;;;;;48.22;21.40;;;1.80;87.30;;;;;;4780121;30;20035;-84
2022/01/11 16:23:23;;;;;;;52.35;23.42;;;1.80;88.00;;;;;;4765424;30;20129;-84
2022/01/11 16:25:53;;;;;;;54.67;22.42;;;1.70;87.40;;;;;;4775250;30;20046;-84
2022/01/11 16:28:19;;;;;;;54.45;23.33;;;1.70;87.40;;;;;;4789790;30;20073;-84
2022/01/11 16:30:48;;;;;;;51.50;23.13;;;1.70;87.50;;;;;;4791513;29;20400;-83
2022/01/11 16:33:16;;;;;;;49.25;22.88;;;1.70;87.80;;;;;;4778709;30;20219;-84
2022/01/11 16:35:44;;;;;;;49.22;22.98;;;1.70;88.10;;;;;;4792410;29;20035;-84
2022/01/11 16:38:11;;;;;;;50.75;23.40;;;1.70;88.20;;;;;;4765614;30;20031;-84
2022/01/11 16:43:21;;;;;;;54.38;22.13;;;1.70;88.70;;;;;;4780817;30;20039;-85
2022/01/11 16:45:52;;;;;;;51.13;23.58;;;1.60;88.80;;;;;;4779295;30;20107;-84